Time;durP1;ratioP1;P1;durP2;ratioP2;P2;SDS_P1;SDS_P2;PMS_P1;PMS_P2;Temp;Humidity;BMP_temperature;BMP_pressure;BME280_temperature;BME280_humidity;BME280_pressure;Samples;Min_cycle;Max_cycle;Signal;HPM_P1;HPM_P2
2021/08/24 00:01:35;;;;;;;;;;;;;;;;;;5010450;28;20198;-71
2021/08/24 00:04:00;;;;;;;;;;;;;;;;;;5046229;28;19909;-72
2021/08/24 00:06:26;;;;;;;;;;;;;;;;;;5022905;28;19944;-72
2021/08/24 00:08:51;;;;;;;;;;;;;;;;;;5016007;28;19944;-72
2021/08/24 00:11:16;;;;;;;;;;;;;;;;;;5025387;28;19960;-72
2021/08/24 00:13:42;;;;;;;;;;;;;;;;;;5018080;28;19953;-72
2021/08/24 00:16:07;;;;;;;;;;;;;;;;;;5016809;28;20013;-72
2021/08/24 00:18:32;;;;;;;;;;;;;;;;;;5023240;28;19918;-71
2021/08/24 00:20:57;;;;;;;;;;;;;;;;;;5016112;28;20441;-72
2021/08/24 00:23:23;;;;;;;;;;;;;;;;;;5023841;28;19968;-71
2021/08/24 00:25:48;;;;;;;;;;;;;;;;;;5032149;28;19977;-72
2021/08/24 00:28:13;;;;;;;;;;;;;;;;;;5047944;28;19936;-72
2021/08/24 00:30:38;;;;;;;;;;;;;;;;;;5022219;28;19952;-71
2021/08/24 00:33:04;;;;;;;;;;;;;;;;;;5016218;28;19954;-72
2021/08/24 00:35:29;;;;;;;;;;;;;;;;;;5037129;28;19936;-72
2021/08/24 00:37:55;;;;;;;;;;;;;;;;;;5022297;28;19917;-72
2021/08/24 00:40:20;;;;;;;;;;;;;;;;;;5034133;28;19981;-72
2021/08/24 00:42:45;;;;;;;;;;;;;;;;;;5054332;28;19913;-72
2021/08/24 00:45:11;;;;;;;;;;;;;;;;;;5031812;28;19902;-72
2021/08/24 00:47:36;;;;;;;;;;;;;;;;;;5040426;28;20036;-72
2021/08/24 00:50:02;;;;;;;;;;;;;;;;;;5005718;28;19996;-72
2021/08/24 00:52:29;;;;;;;;;;;;;;;;;;5016829;28;20236;-72
2021/08/24 00:54:55;;;;;;;;;;;;;;;;;;5023393;28;19959;-72
2021/08/24 00:57:20;;;;;;;;;;;;;;;;;;5014804;28;19901;-72
2021/08/24 00:59:45;;;;;;;;;;;;;;;;;;5021975;28;19936;-71
2021/08/24 01:02:10;;;;;;;;;;;;;;;;;;5014026;28;19913;-72
2021/08/24 01:04:35;;;;;;;;;;;;;;;;;;5017143;28;19924;-72
2021/08/24 01:07:01;;;;;;;;;;;;;;;;;;5027524;28;19918;-71
2021/08/24 01:09:26;;;;;;;;;;;;;;;;;;5017214;28;19918;-71
2021/08/24 01:11:51;;;;;;;;;;;;;;;;;;5022382;28;20072;-71
2021/08/24 01:14:16;;;;;;;;;;;;;;;;;;5016442;28;19953;-72
2021/08/24 01:16:41;;;;;;;;;;;;;;;;;;5016529;28;19917;-72
2021/08/24 01:19:07;;;;;;;;;;;;;;;;;;5053808;28;19902;-71
2021/08/24 01:21:33;;;;;;;;;;;;;;;;;;5045791;28;20041;-72
2021/08/24 01:23:58;;;;;;;;;;;;;;;;;;5052009;28;19929;-71
2021/08/24 01:26:23;;;;;;;;;;;;;;;;;;5014292;28;20002;-71
2021/08/24 01:28:50;;;;;;;;;;;;;;;;;;5016940;28;19913;-72
2021/08/24 01:31:16;;;;;;;;;;;;;;;;;;5020623;28;19917;-71
2021/08/24 01:33:41;;;;;;;;;;;;;;;;;;5046334;28;19928;-72
2021/08/24 01:36:06;;;;;;;;;;;;;;;;;;5022126;28;19985;-72
2021/08/24 01:38:31;;;;;;;;;;;;;;;;;;5015076;28;19952;-71
2021/08/24 01:40:56;;;;;;;;;;;;;;;;;;5017126;28;19916;-71
2021/08/24 01:43:22;;;;;;;;;;;;;;;;;;5020111;28;19918;-71
2021/08/24 01:45:47;;;;;;;;;;;;;;;;;;5015285;28;19968;-71
2021/08/24 01:48:12;;;;;;;;;;;;;;;;;;5020575;28;19929;-72
2021/08/24 01:50:38;;;;;;;;;;;;;;;;;;5031960;28;19976;-72
2021/08/24 01:53:03;;;;;;;;;;;;;;;;;;5016539;28;19922;-72
2021/08/24 01:55:28;;;;;;;;;;;;;;;;;;5023636;28;19917;-72
2021/08/24 01:57:53;;;;;;;;;;;;;;;;;;5016999;28;19918;-72
2021/08/24 02:00:18;;;;;;;;;;;;;;;;;;5042150;28;19918;-71
2021/08/24 02:02:44;;;;;;;;;;;;;;;;;;5021014;28;19935;-71
2021/08/24 02:05:09;;;;;;;;;;;;;;;;;;5015015;28;19917;-72
2021/08/24 02:07:34;;;;;;;;;;;;;;;;;;5020910;28;19924;-72
2021/08/24 02:09:59;;;;;;;;;;;;;;;;;;5015037;28;19917;-72
2021/08/24 02:12:25;;;;;;;;;;;;;;;;;;5021217;28;19929;-71
2021/08/24 02:14:50;;;;;;;;;;;;;;;;;;5015828;28;19994;-72
2021/08/24 02:17:17;;;;;;;;;;;;;;;;;;5028691;28;19917;-71
2021/08/24 02:19:43;;;;;;;;;;;;;;;;;;5018975;28;19977;-71
2021/08/24 02:22:08;;;;;;;;;;;;;;;;;;5016067;28;19972;-72
2021/08/24 02:24:34;;;;;;;;;;;;;;;;;;5035359;28;19917;-72
2021/08/24 02:27:01;;;;;;;;;;;;;;;;;;5014736;28;19933;-72
2021/08/24 02:29:29;;;;;;;;;;;;;;;;;;5018907;28;19914;-72
2021/08/24 02:31:57;;;;;;;;;;;;;;;;;;5035583;28;19940;-71
2021/08/24 02:34:22;;;;;;;;;;;;;;;;;;5014517;28;19917;-71
2021/08/24 02:36:47;;;;;;;;;;;;;;;;;;5033317;28;19979;-72
2021/08/24 02:39:12;;;;;;;;;;;;;;;;;;5035112;28;19961;-72
2021/08/24 02:41:39;;;;;;;;;;;;;;;;;;5016115;28;19936;-71
2021/08/24 02:44:04;;;;;;;;;;;;;;;;;;5022761;28;19933;-72
2021/08/24 02:46:29;;;;;;;;;;;;;;;;;;5016412;28;19910;-72
2021/08/24 02:48:55;;;;;;;;;;;;;;;;;;5014799;28;19940;-72
2021/08/24 02:51:20;;;;;;;;;;;;;;;;;;5022182;28;20130;-71
2021/08/24 02:53:45;;;;;;;;;;;;;;;;;;5018591;28;19917;-72
2021/08/24 02:56:10;;;;;;;;;;;;;;;;;;5021407;28;20009;-71
2021/08/24 02:58:35;;;;;;;;;;;;;;;;;;5015035;28;19918;-72
2021/08/24 03:01:03;;;;;;;;;;;;;;;;;;5014558;28;19983;-72
2021/08/24 03:03:31;;;;;;;;;;;;;;;;;;5019257;28;19940;-72
2021/08/24 03:05:58;;;;;;;;;;;;;;;;;;5015174;28;19918;-72
2021/08/24 03:08:24;;;;;;;;;;;;;;;;;;5020954;28;20393;-72
2021/08/24 03:10:51;;;;;;;;;;;;;;;;;;5016698;28;19918;-72
2021/08/24 03:13:16;;;;;;;;;;;;;;;;;;5047033;28;19917;-72
2021/08/24 03:15:42;;;;;;;;;;;;;;;;;;5019278;28;19932;-72
2021/08/24 03:18:07;;;;;;;;;;;;;;;;;;5029426;28;19918;-72
2021/08/24 03:20:32;;;;;;;;;;;;;;;;;;5035048;28;19914;-71
2021/08/24 03:22:58;;;;;;;;;;;;;;;;;;5013554;28;19979;-71
2021/08/24 03:25:23;;;;;;;;;;;;;;;;;;5014848;28;20457;-72
2021/08/24 03:27:52;;;;;;;;;;;;;;;;;;5020539;28;19917;-71
2021/08/24 03:30:17;;;;;;;;;;;;;;;;;;5010489;28;19918;-72
2021/08/24 03:32:42;;;;;;;;;;;;;;;;;;5020010;28;19972;-72
2021/08/24 03:35:08;;;;;;;;;;;;;;;;;;5015029;28;19914;-71
2021/08/24 03:37:33;;;;;;;;;;;;;;;;;;5019509;28;20276;-71
2021/08/24 03:39:58;;;;;;;;;;;;;;;;;;5019392;28;20319;-71
2021/08/24 03:42:24;;;;;;;;;;;;;;;;;;5028148;28;19914;-72
2021/08/24 03:44:49;;;;;;;;;;;;;;;;;;5018934;28;19924;-71
2021/08/24 03:47:14;;;;;;;;;;;;;;;;;;5013208;28;20136;-72
2021/08/24 03:49:39;;;;;;;;;;;;;;;;;;5012772;28;19918;-72
2021/08/24 03:52:04;;;;;;;;;;;;;;;;;;5020525;28;19934;-72
2021/08/24 03:54:30;;;;;;;;;;;;;;;;;;5020435;28;19929;-71
2021/08/24 03:56:55;;;;;;;;;;;;;;;;;;5018069;28;19968;-71
2021/08/24 03:59:20;;;;;;;;;;;;;;;;;;5016369;28;20299;-71
2021/08/24 04:01:46;;;;;;;;;;;;;;;;;;5042807;28;19913;-71
2021/08/24 04:04:11;;;;;;;;;;;;;;;;;;5020369;28;19917;-71
2021/08/24 04:06:36;;;;;;;;;;;;;;;;;;5018886;28;19942;-71
2021/08/24 04:09:01;;;;;;;;;;;;;;;;;;5017624;28;19997;-71
2021/08/24 04:11:26;;;;;;;;;;;;;;;;;;5014064;28;19940;-71
2021/08/24 04:13:52;;;;;;;;;;;;;;;;;;5015004;28;19913;-71
2021/08/24 04:16:17;;;;;;;;;;;;;;;;;;5019168;28;19914;-71
2021/08/24 04:18:42;;;;;;;;;;;;;;;;;;5015465;28;19914;-71
2021/08/24 04:21:07;;;;;;;;;;;;;;;;;;5020172;28;19928;-72
2021/08/24 04:23:33;;;;;;;;;;;;;;;;;;5011256;28;19925;-72
2021/08/24 04:25:59;;;;;;;;;;;;;;;;;;5044108;28;19917;-71
2021/08/24 04:28:24;;;;;;;;;;;;;;;;;;5047797;28;19925;-72
2021/08/24 04:30:49;;;;;;;;;;;;;;;;;;5042689;28;19918;-71
2021/08/24 04:33:21;;;;;;;;;;;;;;;;;;5021503;28;19997;-72
2021/08/24 04:35:46;;;;;;;;;;;;;;;;;;5014736;28;19992;-72
2021/08/24 04:38:11;;;;;;;;;;;;;;;;;;5011349;28;19989;-72
2021/08/24 04:40:37;;;;;;;;;;;;;;;;;;5048904;28;19909;-73
2021/08/24 04:43:02;;;;;;;;;;;;;;;;;;5011903;28;19918;-71
2021/08/24 04:45:27;;;;;;;;;;;;;;;;;;5016564;28;19922;-71
2021/08/24 04:47:52;;;;;;;;;;;;;;;;;;5047168;28;19925;-71
2021/08/24 04:50:18;;;;;;;;;;;;;;;;;;5016771;28;19917;-71
2021/08/24 04:52:43;;;;;;;;;;;;;;;;;;5020280;28;19948;-72
2021/08/24 04:55:09;;;;;;;;;;;;;;;;;;5032412;28;19974;-72
2021/08/24 04:57:34;;;;;;;;;;;;;;;;;;5024401;28;19924;-71
2021/08/24 04:59:59;;;;;;;;;;;;;;;;;;5018497;28;20303;-71
2021/08/24 05:02:24;;;;;;;;;;;;;;;;;;5014721;28;19910;-71
2021/08/24 05:04:50;;;;;;;;;;;;;;;;;;5036263;28;19923;-72
2021/08/24 05:07:15;;;;;;;;;;;;;;;;;;5016108;28;19931;-72
2021/08/24 05:09:40;;;;;;;;;;;;;;;;;;5022028;28;19928;-72
2021/08/24 05:12:05;;;;;;;;;;;;;;;;;;5013771;28;19941;-72
2021/08/24 05:14:31;;;;;;;;;;;;;;;;;;5012693;28;19909;-71
2021/08/24 05:16:56;;;;;;;;;;;;;;;;;;5020328;28;20160;-72
2021/08/24 05:19:21;;;;;;;;;;;;;;;;;;5015352;28;19917;-72
2021/08/24 05:21:49;;;;;;;;;;;;;;;;;;5021577;28;19992;-72
2021/08/24 05:24:14;;;;;;;;;;;;;;;;;;5015748;28;19914;-73
2021/08/24 05:26:39;;;;;;;;;;;;;;;;;;5019532;28;19907;-71
2021/08/24 05:29:04;;;;;;;;;;;;;;;;;;5055083;28;19925;-72
2021/08/24 05:31:30;;;;;;;;;;;;;;;;;;5018642;28;19921;-72
2021/08/24 05:33:55;;;;;;;;;;;;;;;;;;5022469;28;20024;-72
2021/08/24 05:36:20;;;;;;;;;;;;;;;;;;5014381;28;19921;-72
2021/08/24 05:38:47;;;;;;;;;;;;;;;;;;5020285;28;19933;-72
2021/08/24 05:41:13;;;;;;;;;;;;;;;;;;5040196;28;19944;-72
2021/08/24 05:43:38;;;;;;;;;;;;;;;;;;5021448;28;19917;-72
2021/08/24 05:46:03;;;;;;;;;;;;;;;;;;5022756;28;19928;-72
2021/08/24 05:48:28;;;;;;;;;;;;;;;;;;5022388;28;19906;-72
2021/08/24 05:50:54;;;;;;;;;;;;;;;;;;5027208;28;19957;-71
2021/08/24 05:53:19;;;;;;;;;;;;;;;;;;5056051;28;19944;-73
2021/08/24 05:55:44;;;;;;;;;;;;;;;;;;5037420;28;19917;-71
2021/08/24 05:58:10;;;;;;;;;;;;;;;;;;5024783;28;19958;-72
2021/08/24 06:00:35;;;;;;;;;;;;;;;;;;5022822;28;19945;-71
2021/08/24 06:03:00;;;;;;;;;;;;;;;;;;5020798;28;19928;-72
2021/08/24 06:05:25;;;;;;;;;;;;;;;;;;5035130;28;20256;-73
2021/08/24 06:07:51;;;;;;;;;;;;;;;;;;5029031;28;19944;-72
2021/08/24 06:10:16;;;;;;;;;;;;;;;;;;5020476;28;19921;-72
2021/08/24 06:12:41;;;;;;;;;;;;;;;;;;5021090;28;19926;-72
2021/08/24 06:15:06;;;;;;;;;;;;;;;;;;5022591;28;19922;-73
2021/08/24 06:17:31;;;;;;;;;;;;;;;;;;5025682;28;19922;-72
2021/08/24 06:19:57;;;;;;;;;;;;;;;;;;5022430;28;19914;-72
2021/08/24 06:22:24;;;;;;;;;;;;;;;;;;5038707;28;19920;-72
2021/08/24 06:24:50;;;;;;;;;;;;;;;;;;5018754;28;19917;-72
2021/08/24 06:27:15;;;;;;;;;;;;;;;;;;5021317;28;19916;-72
2021/08/24 06:29:40;;;;;;;;;;;;;;;;;;5021234;28;19928;-72
2021/08/24 06:32:05;;;;;;;;;;;;;;;;;;5019536;28;19933;-72
2021/08/24 06:34:32;;;;;;;;;;;;;;;;;;5020176;28;19929;-72
2021/08/24 06:36:57;;;;;;;;;;;;;;;;;;5018991;28;19918;-72
2021/08/24 06:39:22;;;;;;;;;;;;;;;;;;5019815;28;19918;-72
2021/08/24 06:41:47;;;;;;;;;;;;;;;;;;5026033;28;19918;-72
2021/08/24 06:44:13;;;;;;;;;;;;;;;;;;5020412;28;19918;-72
2021/08/24 06:46:40;;;;;;;;;;;;;;;;;;5021496;28;19925;-72
2021/08/24 06:49:06;;;;;;;;;;;;;;;;;;5018452;28;19921;-72
2021/08/24 06:51:31;;;;;;;;;;;;;;;;;;5020142;28;19921;-72
2021/08/24 06:53:56;;;;;;;;;;;;;;;;;;5020306;28;19944;-73
2021/08/24 06:56:21;;;;;;;;;;;;;;;;;;5019932;28;19981;-72
2021/08/24 06:58:49;;;;;;;;;;;;;;;;;;5021536;28;19909;-73
2021/08/24 07:01:14;;;;;;;;;;;;;;;;;;5023570;28;19917;-72
2021/08/24 07:03:39;;;;;;;;;;;;;;;;;;5022956;28;20148;-72
2021/08/24 07:06:05;;;;;;;;;;;;;;;;;;5018564;28;19993;-72
2021/08/24 07:08:30;;;;;;;;;;;;;;;;;;5019879;28;19928;-72
2021/08/24 07:10:55;;;;;;;;;;;;;;;;;;5038552;28;19965;-72
2021/08/24 07:13:20;;;;;;;;;;;;;;;;;;5022688;28;19960;-72
2021/08/24 07:15:46;;;;;;;;;;;;;;;;;;5021500;28;19982;-72
2021/08/24 07:18:11;;;;;;;;;;;;;;;;;;5019269;28;19996;-73
2021/08/24 07:20:36;;;;;;;;;;;;;;;;;;5019719;28;19977;-72
2021/08/24 07:23:04;;;;;;;;;;;;;;;;;;5048346;28;19918;-72
2021/08/24 07:25:31;;;;;;;;;;;;;;;;;;5020388;28;19985;-72
2021/08/24 07:27:56;;;;;;;;;;;;;;;;;;5026168;28;19949;-72
2021/08/24 07:30:21;;;;;;;;;;;;;;;;;;5021850;28;19922;-72
2021/08/24 07:32:46;;;;;;;;;;;;;;;;;;5021605;28;19925;-72
2021/08/24 07:35:12;;;;;;;;;;;;;;;;;;5021965;28;19977;-72
2021/08/24 07:37:37;;;;;;;;;;;;;;;;;;5019325;28;20299;-73
2021/08/24 07:40:02;;;;;;;;;;;;;;;;;;5020387;28;20337;-72
2021/08/24 07:42:27;;;;;;;;;;;;;;;;;;5026082;28;19973;-72
2021/08/24 07:44:53;;;;;;;;;;;;;;;;;;5020566;28;19976;-72
2021/08/24 07:47:18;;;;;;;;;;;;;;;;;;5024790;28;19925;-72
2021/08/24 07:49:46;;;;;;;;;;;;;;;;;;5020091;28;19918;-72
2021/08/24 07:52:11;;;;;;;;;;;;;;;;;;5019739;28;20224;-73
2021/08/24 07:54:36;;;;;;;;;;;;;;;;;;5020683;28;19944;-72
2021/08/24 07:57:04;;;;;;;;;;;;;;;;;;5021221;28;19905;-71
2021/08/24 07:59:29;;;;;;;;;;;;;;;;;;5019983;28;19941;-72
2021/08/24 08:01:57;;;;;;;;;;;;;;;;;;5021063;28;19913;-72
2021/08/24 08:04:22;;;;;;;;;;;;;;;;;;5020725;28;19918;-72
2021/08/24 08:06:48;;;;;;;;;;;;;;;;;;5023199;28;19905;-72
2021/08/24 08:09:13;;;;;;;;;;;;;;;;;;5019471;28;20057;-72
2021/08/24 08:11:39;;;;;;;;;;;;;;;;;;5021236;28;19945;-71
2021/08/24 08:14:04;;;;;;;;;;;;;;;;;;5022191;28;19917;-71
2021/08/24 08:16:29;;;;;;;;;;;;;;;;;;5019567;28;19922;-71
2021/08/24 08:18:54;;;;;;;;;;;;;;;;;;5024808;28;19905;-72
2021/08/24 08:21:19;;;;;;;;;;;;;;;;;;5020012;28;19960;-72
2021/08/24 08:23:45;;;;;;;;;;;;;;;;;;5023275;28;19921;-72
2021/08/24 08:26:11;;;;;;;;;;;;;;;;;;5022053;28;19926;-72
2021/08/24 08:28:36;;;;;;;;;;;;;;;;;;5022952;28;19922;-72
2021/08/24 08:31:03;;;;;;;;;;;;;;;;;;5024460;28;19940;-72
2021/08/24 08:33:28;;;;;;;;;;;;;;;;;;5038996;28;19925;-71
2021/08/24 08:35:54;;;;;;;;;;;;;;;;;;5022005;28;19913;-72
2021/08/24 08:38:19;;;;;;;;;;;;;;;;;;5024311;28;19964;-72
2021/08/24 08:40:47;;;;;;;;;;;;;;;;;;5025467;28;19910;-72
2021/08/24 08:43:12;;;;;;;;;;;;;;;;;;5024977;28;19922;-72
2021/08/24 08:45:37;;;;;;;;;;;;;;;;;;5025972;28;19914;-71
2021/08/24 08:48:05;;;;;;;;;;;;;;;;;;5020683;28;19968;-72
2021/08/24 08:50:30;;;;;;;;;;;;;;;;;;5022453;28;19925;-72
2021/08/24 08:52:55;;;;;;;;;;;;;;;;;;5023544;28;19909;-72
2021/08/24 08:55:21;;;;;;;;;;;;;;;;;;5025785;28;19910;-72
2021/08/24 08:57:46;;;;;;;;;;;;;;;;;;5023350;28;19922;-72
2021/08/24 09:00:11;;;;;;;;;;;;;;;;;;5025112;28;19949;-72
2021/08/24 09:02:36;;;;;;;;;;;;;;;;;;5023611;28;19917;-72
2021/08/24 09:05:01;;;;;;;;;;;;;;;;;;5023376;28;19917;-72
2021/08/24 09:07:27;;;;;;;;;;;;;;;;;;5024507;28;19921;-72
2021/08/24 09:09:52;;;;;;;;;;;;;;;;;;5025041;28;19966;-72
2021/08/24 09:12:17;;;;;;;;;;;;;;;;;;5024415;28;19917;-73
2021/08/24 09:14:42;;;;;;;;;;;;;;;;;;5022879;28;19920;-72
2021/08/24 09:17:07;;;;;;;;;;;;;;;;;;5022975;28;19976;-73
2021/08/24 09:19:33;;;;;;;;;;;;;;;;;;5018819;28;19914;-72
2021/08/24 09:21:58;;;;;;;;;;;;;;;;;;5021099;28;20312;-74
2021/08/24 09:24:23;;;;;;;;;;;;;;;;;;5021961;28;19952;-74
2021/08/24 09:26:48;;;;;;;;;;;;;;;;;;5022107;28;19913;-74
2021/08/24 09:29:14;;;;;;;;;;;;;;;;;;5051687;28;19921;-74
2021/08/24 09:31:39;;;;;;;;;;;;;;;;;;5022225;28;19913;-74
2021/08/24 09:34:04;;;;;;;;;;;;;;;;;;5019997;28;19913;-74
2021/08/24 09:36:29;;;;;;;;;;;;;;;;;;5020369;28;19932;-74
2021/08/24 09:38:57;;;;;;;;;;;;;;;;;;5019540;28;19922;-73
2021/08/24 09:41:24;;;;;;;;;;;;;;;;;;5020955;28;19993;-74
2021/08/24 09:43:50;;;;;;;;;;;;;;;;;;5021182;28;19909;-74
2021/08/24 09:46:15;;;;;;;;;;;;;;;;;;5051319;28;20024;-73
2021/08/24 09:48:40;;;;;;;;;;;;;;;;;;5028713;28;19921;-72
2021/08/24 09:51:05;;;;;;;;;;;;;;;;;;5024395;28;19909;-72
2021/08/24 09:53:31;;;;;;;;;;;;;;;;;;5023014;28;19933;-72
2021/08/24 09:55:56;;;;;;;;;;;;;;;;;;5018110;28;19922;-71
2021/08/24 09:58:21;;;;;;;;;;;;;;;;;;5018943;28;19909;-72
2021/08/24 10:00:46;;;;;;;;;;;;;;;;;;5022781;28;20022;-72
2021/08/24 10:03:11;;;;;;;;;;;;;;;;;;5018851;28;19921;-71
2021/08/24 10:05:37;;;;;;;;;;;;;;;;;;5023310;28;20044;-72
2021/08/24 10:08:02;;;;;;;;;;;;;;;;;;5023378;28;19910;-72
2021/08/24 10:10:27;;;;;;;;;;;;;;;;;;5024331;28;19933;-72
2021/08/24 10:12:53;;;;;;;;;;;;;;;;;;5022458;28;19925;-73
2021/08/24 10:15:20;;;;;;;;;;;;;;;;;;5040000;28;19917;-72
2021/08/24 10:17:46;;;;;;;;;;;;;;;;;;5021640;28;19952;-72
2021/08/24 10:20:12;;;;;;;;;;;;;;;;;;5019954;28;20016;-72
2021/08/24 10:22:37;;;;;;;;;;;;;;;;;;5024237;28;19933;-73
2021/08/24 10:25:02;;;;;;;;;;;;;;;;;;5021016;28;19909;-73
2021/08/24 10:27:27;;;;;;;;;;;;;;;;;;5025361;28;19976;-73
2021/08/24 10:29:53;;;;;;;;;;;;;;;;;;5021855;28;19910;-73
2021/08/24 10:32:18;;;;;;;;;;;;;;;;;;5019916;28;19932;-73
2021/08/24 10:34:43;;;;;;;;;;;;;;;;;;5024519;28;19956;-72
2021/08/24 10:37:08;;;;;;;;;;;;;;;;;;5022325;28;19910;-73
2021/08/24 10:39:34;;;;;;;;;;;;;;;;;;5038993;28;19917;-73
2021/08/24 10:41:59;;;;;;;;;;;;;;;;;;5023409;28;19972;-72
2021/08/24 10:44:24;;;;;;;;;;;;;;;;;;5022553;28;19917;-72
2021/08/24 10:46:52;;;;;;;;;;;;;;;;;;5022971;28;19902;-72
2021/08/24 10:49:17;;;;;;;;;;;;;;;;;;5019811;28;19921;-72
2021/08/24 10:51:43;;;;;;;;;;;;;;;;;;5021626;28;19902;-72
2021/08/24 10:54:09;;;;;;;;;;;;;;;;;;5052367;28;19932;-72
2021/08/24 10:56:34;;;;;;;;;;;;;;;;;;5023332;28;19918;-72
2021/08/24 10:58:59;;;;;;;;;;;;;;;;;;5024549;28;19924;-70
2021/08/24 11:01:25;;;;;;;;;;;;;;;;;;5056525;28;19910;-70
2021/08/24 11:03:50;;;;;;;;;;;;;;;;;;5025102;28;19992;-70
2021/08/24 11:06:15;;;;;;;;;;;;;;;;;;5023515;28;19913;-70
2021/08/24 11:08:40;;;;;;;;;;;;;;;;;;5024087;28;19920;-70
2021/08/24 11:11:06;;;;;;;;;;;;;;;;;;5037703;28;20339;-74
2021/08/24 11:13:31;;;;;;;;;;;;;;;;;;5024276;28;19910;-74
2021/08/24 11:15:56;;;;;;;;;;;;;;;;;;5028930;28;20147;-74
2021/08/24 11:18:21;;;;;;;;;;;;;;;;;;5053524;28;19914;-74
2021/08/24 11:20:46;;;;;;;;;;;;;;;;;;5025088;28;19932;-74
2021/08/24 11:23:12;;;;;;;;;;;;;;;;;;5023095;28;19940;-74
2021/08/24 11:25:37;;;;;;;;;;;;;;;;;;5019712;28;19973;-74
2021/08/24 11:28:02;;;;;;;;;;;;;;;;;;5052785;28;19941;-74
2021/08/24 11:30:28;;;;;;;;;;;;;;;;;;5022114;28;19929;-74
2021/08/24 11:32:53;;;;;;;;;;;;;;;;;;5023520;28;19925;-74
2021/08/24 11:35:18;;;;;;;;;;;;;;;;;;5022634;28;19940;-74
2021/08/24 11:37:44;;;;;;;;;;;;;;;;;;5023958;28;19924;-74
2021/08/24 11:40:09;;;;;;;;;;;;;;;;;;5021455;28;19936;-74
2021/08/24 11:42:34;;;;;;;;;;;;;;;;;;5023919;28;19974;-74
2021/08/24 11:44:59;;;;;;;;;;;;;;;;;;5036636;28;19918;-74
2021/08/24 11:47:25;;;;;;;;;;;;;;;;;;5022085;28;19917;-74
2021/08/24 11:49:53;;;;;;;;;;;;;;;;;;5035811;28;19964;-74
2021/08/24 11:52:18;;;;;;;;;;;;;;;;;;5021939;28;19926;-74
2021/08/24 11:54:43;;;;;;;;;;;;;;;;;;5024145;28;19909;-74
2021/08/24 11:57:09;;;;;;;;;;;;;;;;;;5020318;28;19937;-74
2021/08/24 11:59:34;;;;;;;;;;;;;;;;;;5021306;28;19898;-74
2021/08/24 12:01:59;;;;;;;;;;;;;;;;;;5026025;28;19961;-75
2021/08/24 12:04:25;;;;;;;;;;;;;;;;;;5026808;28;19949;-74
2021/08/24 12:06:50;;;;;;;;;;;;;;;;;;5028422;28;19918;-74
2021/08/24 12:09:15;;;;;;;;;;;;;;;;;;5030079;28;19929;-75
2021/08/24 12:11:40;;;;;;;;;;;;;;;;;;5028262;28;19914;-75
2021/08/24 12:14:05;;;;;;;;;;;;;;;;;;5027822;28;19925;-74
2021/08/24 12:16:31;;;;;;;;;;;;;;;;;;5024776;28;19976;-74
2021/08/24 12:18:56;;;;;;;;;;;;;;;;;;5026116;28;19924;-74
2021/08/24 12:21:22;;;;;;;;;;;;;;;;;;5026093;28;20183;-74
2021/08/24 12:23:47;;;;;;;;;;;;;;;;;;5025677;28;19910;-75
2021/08/24 12:26:12;;;;;;;;;;;;;;;;;;5025437;28;19902;-75
2021/08/24 12:28:38;;;;;;;;;;;;;;;;;;5026296;28;19917;-75
2021/08/24 12:31:04;;;;;;;;;;;;;;;;;;5025201;28;19924;-72
2021/08/24 12:33:29;;;;;;;;;;;;;;;;;;5024212;28;19920;-73
2021/08/24 12:35:54;;;;;;;;;;;;;;;;;;5026148;28;19918;-72
2021/08/24 12:38:19;;;;;;;;;;;;;;;;;;5027062;28;20181;-73
2021/08/24 12:40:45;;;;;;;;;;;;;;;;;;5027137;28;20266;-73
2021/08/24 12:43:10;;;;;;;;;;;;;;;;;;5024703;28;19925;-72
2021/08/24 12:45:35;;;;;;;;;;;;;;;;;;5025557;28;19929;-72
2021/08/24 12:48:00;;;;;;;;;;;;;;;;;;5025104;28;19921;-73
2021/08/24 12:50:25;;;;;;;;;;;;;;;;;;5026130;28;19945;-70
2021/08/24 12:52:51;;;;;;;;;;;;;;;;;;5025673;28;19917;-71
2021/08/24 12:55:16;;;;;;;;;;;;;;;;;;5031207;28;20009;-72
2021/08/24 12:57:42;;;;;;;;;;;;;;;;;;5040437;28;20235;-71
2021/08/24 13:00:07;;;;;;;;;;;;;;;;;;5025773;28;19913;-71
2021/08/24 13:02:33;;;;;;;;;;;;;;;;;;5028241;28;19910;-72
2021/08/24 13:04:58;;;;;;;;;;;;;;;;;;5022196;28;20025;-71
2021/08/24 13:07:23;;;;;;;;;;;;;;;;;;5022830;28;19914;-71
2021/08/24 13:09:48;;;;;;;;;;;;;;;;;;5021924;28;19922;-71
2021/08/24 13:12:19;;;;;;;;;;;;;;;;;;5025183;28;20090;-71
2021/08/24 13:14:44;;;;;;;;;;;;;;;;;;5024261;28;19917;-71
2021/08/24 13:17:10;;;;;;;;;;;;;;;;;;5023996;28;19935;-71
2021/08/24 13:19:35;;;;;;;;;;;;;;;;;;5021976;28;19918;-72
2021/08/24 13:22:00;;;;;;;;;;;;;;;;;;5024516;28;20239;-72
2021/08/24 13:24:26;;;;;;;;;;;;;;;;;;5025427;28;19926;-71
2021/08/24 13:26:51;;;;;;;;;;;;;;;;;;5024473;28;19917;-72
2021/08/24 13:29:16;;;;;;;;;;;;;;;;;;5024746;28;19921;-72
2021/08/24 13:31:43;;;;;;;;;;;;;;;;;;5021071;28;19925;-72
2021/08/24 13:34:08;;;;;;;;;;;;;;;;;;5023869;28;19922;-71
2021/08/24 13:36:33;;;;;;;;;;;;;;;;;;5023384;28;19912;-72
2021/08/24 13:38:58;;;;;;;;;;;;;;;;;;5029647;28;19922;-72
2021/08/24 13:41:24;;;;;;;;;;;;;;;;;;5024266;28;19979;-72
2021/08/24 13:43:50;;;;;;;;;;;;;;;;;;5026211;28;19908;-73
2021/08/24 13:46:15;;;;;;;;;;;;;;;;;;5040283;28;19949;-73
2021/08/24 13:48:40;;;;;;;;;;;;;;;;;;5023110;28;19912;-71
2021/08/24 13:51:08;;;;;;;;;;;;;;;;;;5025399;28;19922;-72
2021/08/24 13:53:35;;;;;;;;;;;;;;;;;;5024550;28;19937;-72
2021/08/24 13:56:03;;;;;;;;;;;;;;;;;;5024248;28;19945;-72
2021/08/24 13:58:28;;;;;;;;;;;;;;;;;;5025073;28;19924;-72
2021/08/24 14:00:53;;;;;;;;;;;;;;;;;;5053178;28;19948;-71
2021/08/24 14:03:19;;;;;;;;;;;;;;;;;;5023297;28;19901;-71
2021/08/24 14:05:44;;;;;;;;;;;;;;;;;;5024422;28;19921;-72
2021/08/24 14:08:11;;;;;;;;;;;;;;;;;;5024085;28;20492;-73
2021/08/24 14:10:36;;;;;;;;;;;;;;;;;;5024430;28;20054;-74
2021/08/24 14:13:01;;;;;;;;;;;;;;;;;;5024589;28;20001;-72
2021/08/24 14:15:27;;;;;;;;;;;;;;;;;;5024345;28;19912;-71
2021/08/24 14:17:52;;;;;;;;;;;;;;;;;;5023663;28;19914;-72
2021/08/24 14:20:17;;;;;;;;;;;;;;;;;;5026459;28;19910;-73
2021/08/24 14:22:42;;;;;;;;;;;;;;;;;;5025364;28;19952;-72
2021/08/24 14:25:08;;;;;;;;;;;;;;;;;;5027538;28;19922;-75
2021/08/24 14:27:33;;;;;;;;;;;;;;;;;;5052545;28;19969;-73
2021/08/24 14:29:59;;;;;;;;;;;;;;;;;;5019039;28;19920;-73
2021/08/24 14:32:24;;;;;;;;;;;;;;;;;;5012229;28;19926;-72
2021/08/24 14:34:50;;;;;;;;;;;;;;;;;;5031781;28;20063;-73
2021/08/24 14:37:15;;;;;;;;;;;;;;;;;;5018502;28;19953;-73
2021/08/24 14:39:43;;;;;;;;;;;;;;;;;;5011525;28;19912;-77
2021/08/24 14:42:08;;;;;;;;;;;;;;;;;;5020786;28;19926;-77
2021/08/24 14:44:34;;;;;;;;;;;;;;;;;;5017126;28;20155;-71
2021/08/24 14:47:01;;;;;;;;;;;;;;;;;;5014331;28;19909;-71
2021/08/24 14:49:26;;;;;;;;;;;;;;;;;;5023134;28;19925;-69
2021/08/24 14:51:52;;;;;;;;;;;;;;;;;;5033679;28;19925;-68
2021/08/24 14:54:18;;;;;;;;;;;;;;;;;;5036423;28;20302;-68
2021/08/24 14:56:44;;;;;;;;;;;;;;;;;;5014272;28;19921;-70
2021/08/24 14:59:09;;;;;;;;;;;;;;;;;;5013148;28;19910;-69
2021/08/24 15:01:35;;;;;;;;;;;;;;;;;;5022535;28;20066;-69
2021/08/24 15:04:00;;;;;;;;;;;;;;;;;;5018848;28;20178;-69
2021/08/24 15:06:27;;;;;;;;;;;;;;;;;;5020214;28;19965;-69
2021/08/24 15:08:52;;;;;;;;;;;;;;;;;;5015085;28;19913;-69
2021/08/24 15:11:18;;;;;;;;;;;;;;;;;;5020667;28;19940;-70
2021/08/24 15:13:43;;;;;;;;;;;;;;;;;;5019846;28;19921;-70
2021/08/24 15:16:08;;;;;;;;;;;;;;;;;;5013721;28;19925;-74
2021/08/24 15:18:33;;;;;;;;;;;;;;;;;;5053761;28;19902;-70
2021/08/24 15:21:01;;;;;;;;;;;;;;;;;;5015122;28;19906;-70
2021/08/24 15:23:29;;;;;;;;;;;;;;;;;;5015827;28;19928;-70
2021/08/24 15:25:54;;;;;;;;;;;;;;;;;;5036573;28;19972;-70
2021/08/24 15:28:22;;;;;;;;;;;;;;;;;;5015725;28;19990;-73
2021/08/24 15:30:47;;;;;;;;;;;;;;;;;;5022810;28;19901;-72
2021/08/24 15:33:12;;;;;;;;;;;;;;;;;;5018684;28;20017;-73
2021/08/24 15:35:38;;;;;;;;;;;;;;;;;;5013136;28;20051;-73
2021/08/24 15:38:06;;;;;;;;;;;;;;;;;;5020874;28;19913;-74
2021/08/24 15:40:31;;;;;;;;;;;;;;;;;;5030961;28;19921;-74
2021/08/24 15:42:57;;;;;;;;;;;;;;;;;;5022542;28;19924;-74
2021/08/24 15:45:22;;;;;;;;;;;;;;;;;;5017248;28;19897;-74
2021/08/24 15:47:47;;;;;;;;;;;;;;;;;;5018900;28;19929;-74
2021/08/24 15:50:12;;;;;;;;;;;;;;;;;;5021991;28;19996;-73
2021/08/24 15:52:40;;;;;;;;;;;;;;;;;;5005633;28;19981;-74
2021/08/24 15:55:05;;;;;;;;;;;;;;;;;;5021599;28;19898;-73
2021/08/24 15:57:31;;;;;;;;;;;;;;;;;;5016056;28;19918;-74
2021/08/24 15:59:58;;;;;;;;;;;;;;;;;;5014558;28;19923;-73
2021/08/24 16:02:24;;;;;;;;;;;;;;;;;;5020172;28;19914;-73
2021/08/24 16:04:49;;;;;;;;;;;;;;;;;;5022049;28;19910;-73
2021/08/24 16:07:14;;;;;;;;;;;;;;;;;;5036241;28;20243;-74
2021/08/24 16:09:39;;;;;;;;;;;;;;;;;;5014525;28;19910;-73
2021/08/24 16:12:05;;;;;;;;;;;;;;;;;;5013711;28;19917;-73
2021/08/24 16:14:30;;;;;;;;;;;;;;;;;;5023306;28;20508;-73
2021/08/24 16:16:55;;;;;;;;;;;;;;;;;;5012074;28;19917;-74
2021/08/24 16:19:22;;;;;;;;;;;;;;;;;;5054435;28;19910;-74
2021/08/24 16:21:48;;;;;;;;;;;;;;;;;;5030656;28;19901;-74
2021/08/24 16:24:13;;;;;;;;;;;;;;;;;;5014557;28;19937;-74
2021/08/24 16:26:38;;;;;;;;;;;;;;;;;;5017512;28;19922;-74
2021/08/24 16:29:03;;;;;;;;;;;;;;;;;;5017390;28;19917;-74
2021/08/24 16:31:29;;;;;;;;;;;;;;;;;;5021826;28;19913;-74
2021/08/24 16:33:56;;;;;;;;;;;;;;;;;;5016484;28;19917;-74